createdAt,value
2022-10-11T00:00:07.509Z,99222.38
2022-10-11T00:02:34.040Z,99229.41
2022-10-11T00:05:00.614Z,99233.81
2022-10-11T00:07:27.175Z,99240.13
2022-10-11T00:09:54.005Z,99242.91
2022-10-11T00:12:20.815Z,99241.00
2022-10-11T00:14:47.369Z,99230.31
2022-10-11T00:17:14.525Z,99235.59
2022-10-11T00:19:41.094Z,99239.09
2022-10-11T00:22:07.678Z,99239.97
2022-10-11T00:24:34.249Z,99246.09
2022-10-11T00:27:00.858Z,99241.75
2022-10-11T00:29:27.393Z,99243.72
2022-10-11T00:31:53.901Z,99246.50
2022-10-11T00:34:20.503Z,99235.06
2022-10-11T00:36:47.086Z,99239.69
2022-10-11T00:39:14.522Z,99249.63
2022-10-11T00:41:41.345Z,99255.13
2022-10-11T00:44:12.835Z,99256.16
2022-10-11T00:46:42.564Z,99264.91
2022-10-11T00:49:25.318Z,99267.47
2022-10-11T00:52:22.774Z,99275.59
2022-10-11T00:54:50.072Z,99270.31
2022-10-11T00:57:23.908Z,99269.44
2022-10-11T00:59:54.319Z,99278.25
2022-10-11T01:02:23.119Z,99275.06
2022-10-11T01:05:05.601Z,99283.81
2022-10-11T01:07:38.724Z,99282.19
2022-10-11T01:10:05.723Z,99284.09
2022-10-11T01:12:32.641Z,99286.75
2022-10-11T01:15:05.508Z,99276.56
2022-10-11T01:18:12.700Z,99288.38
2022-10-11T01:21:00.514Z,99291.00
2022-10-11T01:23:57.973Z,99281.47
2022-10-11T01:26:33.311Z,99285.16
2022-10-11T01:29:18.097Z,99291.19
2022-10-11T01:32:02.631Z,99294.78
2022-10-11T01:35:01.684Z,99296.47
2022-10-11T01:37:41.112Z,99290.53
2022-10-11T01:40:11.270Z,99290.66
2022-10-11T01:42:39.911Z,99291.31
2022-10-11T01:45:13.997Z,99302.91
2022-10-11T01:47:42.408Z,99301.53
2022-10-11T01:50:31.587Z,99300.97
2022-10-11T01:53:04.286Z,99298.63
2022-10-11T01:55:50.030Z,99297.22
2022-10-11T01:58:45.838Z,99297.38
2022-10-11T02:01:18.054Z,99298.97
2022-10-11T02:04:25.592Z,99300.66
2022-10-11T02:07:08.172Z,99297.34
2022-10-11T02:10:03.416Z,99298.75
2022-10-11T02:12:40.768Z,99293.59
2022-10-11T02:15:11.580Z,99300.56
2022-10-11T02:17:43.430Z,99307.72
2022-10-11T02:20:16.247Z,99307.81
2022-10-11T02:22:45.875Z,99312.44
2022-10-11T02:25:20.292Z,99307.03
2022-10-11T02:27:48.777Z,99306.09
2022-10-11T02:30:16.064Z,99307.22
2022-10-11T02:32:46.453Z,99307.50
2022-10-11T02:35:13.933Z,99315.22
2022-10-11T02:37:49.290Z,99314.66
2022-10-11T02:40:22.844Z,99309.38
2022-10-11T02:43:01.267Z,99311.44
2022-10-11T02:45:36.786Z,99315.97
2022-10-11T02:48:05.078Z,99309.25
2022-10-11T02:50:31.657Z,99314.78
2022-10-11T02:52:58.213Z,99313.78
2022-10-11T02:55:24.738Z,99325.25
2022-10-11T02:57:51.302Z,99315.66
2022-10-11T03:00:17.858Z,99322.78
2022-10-11T03:02:44.408Z,99328.16
2022-10-11T03:05:10.934Z,99326.34
2022-10-11T03:07:37.518Z,99327.22
2022-10-11T03:10:05.108Z,99331.56
2022-10-11T03:12:32.130Z,99335.13
2022-10-11T03:14:58.769Z,99329.00
2022-10-11T03:17:36.213Z,99328.22
2022-10-11T03:20:04.760Z,99329.28
2022-10-11T03:22:31.279Z,99333.50
2022-10-11T03:25:03.397Z,99328.50
2022-10-11T03:27:31.027Z,99324.06
2022-10-11T03:29:57.854Z,99330.47
2022-10-11T03:32:24.939Z,99333.00
2022-10-11T03:34:51.501Z,99334.69
2022-10-11T03:37:18.276Z,99343.56
2022-10-11T03:39:45.775Z,99350.06
2022-10-11T03:42:13.685Z,99342.72
2022-10-11T03:44:41.682Z,99350.91
2022-10-11T03:47:08.473Z,99357.78
2022-10-11T03:49:37.710Z,99360.50
2022-10-11T03:52:07.862Z,99359.75
2022-10-11T03:54:34.387Z,99364.75
2022-10-11T03:57:00.954Z,99366.63
2022-10-11T03:59:27.475Z,99363.50
2022-10-11T04:01:54.209Z,99370.81
2022-10-11T04:04:20.851Z,99370.97
2022-10-11T04:06:47.368Z,99370.22
2022-10-11T04:09:13.905Z,99374.44
2022-10-11T04:11:40.487Z,99381.34
2022-10-11T04:14:07.021Z,99382.13
2022-10-11T04:16:34.110Z,99382.22
2022-10-11T04:19:00.960Z,99382.97
2022-10-11T04:21:27.493Z,99388.16
2022-10-11T04:23:54.807Z,99388.09
2022-10-11T04:26:21.441Z,99380.19
2022-10-11T04:28:48.094Z,99388.25
2022-10-11T04:31:14.849Z,99391.81
2022-10-11T04:33:41.447Z,99387.47
2022-10-11T04:36:08.638Z,99394.44
2022-10-11T04:38:35.436Z,99403.19
2022-10-11T04:41:09.579Z,99402.25
2022-10-11T04:43:36.684Z,99406.69
2022-10-11T04:46:04.578Z,99407.50
2022-10-11T04:48:31.511Z,99409.22
2022-10-11T04:50:58.109Z,99411.16
2022-10-11T04:53:24.938Z,99403.41
2022-10-11T04:56:01.076Z,99410.31
2022-10-11T04:58:28.934Z,99408.53
2022-10-11T05:00:56.020Z,99404.22
2022-10-11T05:03:22.667Z,99403.34
2022-10-11T05:05:49.490Z,99412.16
2022-10-11T05:08:16.397Z,99410.38
2022-10-11T05:10:43.213Z,99409.59
2022-10-11T05:13:09.751Z,99405.28
2022-10-11T05:15:36.272Z,99414.31
2022-10-11T05:18:02.925Z,99415.66
2022-10-11T05:20:29.499Z,99422.66
2022-10-11T05:22:56.146Z,99419.09
2022-10-11T05:25:22.709Z,99419.16
2022-10-11T05:27:49.225Z,99419.22
2022-10-11T05:30:16.014Z,99423.72
2022-10-11T05:32:42.540Z,99422.09
2022-10-11T05:35:09.309Z,99423.94
2022-10-11T05:37:35.843Z,99419.97
2022-10-11T05:40:02.444Z,99426.72
2022-10-11T05:42:29.018Z,99427.34
2022-10-11T05:44:55.557Z,99432.75
2022-10-11T05:47:22.121Z,99436.25
2022-10-11T05:49:48.682Z,99432.28
2022-10-11T05:52:19.770Z,99430.09
2022-10-11T05:54:46.686Z,99443.25
2022-10-11T05:57:13.461Z,99443.13
2022-10-11T05:59:40.010Z,99445.59
2022-10-11T06:02:07.448Z,99450.75
2022-10-11T06:04:37.450Z,99455.09
2022-10-11T06:07:04.338Z,99459.44
2022-10-11T06:09:31.232Z,99461.06
2022-10-11T06:11:57.943Z,99463.69
2022-10-11T06:14:24.485Z,99463.69
2022-10-11T06:16:51.243Z,99465.63
2022-10-11T06:19:17.837Z,99467.47
2022-10-11T06:21:45.804Z,99472.06
2022-10-11T06:24:13.093Z,99477.06
2022-10-11T06:26:39.674Z,99477.00
2022-10-11T06:29:06.304Z,99471.75
2022-10-11T06:31:33.151Z,99471.75
2022-10-11T06:33:59.910Z,99485.66
2022-10-11T06:36:26.784Z,99484.03
2022-10-11T06:38:55.031Z,99493.56
2022-10-11T06:41:26.996Z,99496.81
2022-10-11T06:43:54.020Z,99498.66
2022-10-11T06:46:23.129Z,99499.38
2022-10-11T06:48:50.317Z,99507.34
2022-10-11T06:51:20.133Z,99509.34
2022-10-11T06:53:55.855Z,99513.81
2022-10-11T06:56:22.855Z,99514.81
2022-10-11T06:58:51.013Z,99515.69
2022-10-11T07:01:20.125Z,99519.88
2022-10-11T07:03:47.390Z,99526.78
2022-10-11T07:06:16.959Z,99526.00
2022-10-11T07:08:43.526Z,99531.31
2022-10-11T07:11:12.322Z,99530.53
2022-10-11T07:13:39.918Z,99533.59
2022-10-11T07:16:09.904Z,99530.38
2022-10-11T07:18:36.775Z,99541.84
2022-10-11T07:21:05.734Z,99547.53
2022-10-11T07:23:32.547Z,99539.91
2022-10-11T07:25:59.367Z,99554.84
2022-10-11T07:28:26.894Z,99557.47
2022-10-11T07:30:53.542Z,99558.97
2022-10-11T07:33:20.107Z,99551.00
2022-10-11T07:35:48.566Z,99550.16
2022-10-11T07:38:15.790Z,99554.22
2022-10-11T07:40:44.376Z,99553.97
2022-10-11T07:43:12.195Z,99553.06
2022-10-11T07:45:45.125Z,99557.84
2022-10-11T07:48:11.772Z,99553.78
2022-10-11T07:50:38.333Z,99557.13
2022-10-11T07:53:05.083Z,99549.09
2022-10-11T07:55:40.044Z,99553.22
2022-10-11T07:58:11.775Z,99557.03
2022-10-11T08:00:39.373Z,99553.53
2022-10-11T08:03:06.508Z,99562.94
2022-10-11T08:05:34.734Z,99564.63
2022-10-11T08:08:01.254Z,99563.13
2022-10-11T08:10:28.048Z,99572.34
2022-10-11T08:12:54.773Z,99572.59
2022-10-11T08:15:21.724Z,99559.66
2022-10-11T08:17:48.589Z,99567.13
2022-10-11T08:20:15.224Z,99564.97
2022-10-11T08:22:42.018Z,99563.44
2022-10-11T08:25:08.699Z,99569.00
2022-10-11T08:27:35.255Z,99580.88
2022-10-11T08:30:01.828Z,99579.72
2022-10-11T08:32:29.758Z,99584.72
2022-10-11T08:34:56.442Z,99584.88
2022-10-11T08:37:22.968Z,99582.41
2022-10-11T08:39:49.775Z,99582.97
2022-10-11T08:42:30.674Z,99585.53
2022-10-11T08:45:11.142Z,99580.44
2022-10-11T08:47:42.779Z,99575.75
2022-10-11T08:50:15.641Z,99570.19
2022-10-11T08:52:56.768Z,99568.66
2022-10-11T08:55:30.154Z,99576.03
2022-10-11T08:57:57.408Z,99573.13
2022-10-11T09:00:26.294Z,99586.16
2022-10-11T09:03:11.698Z,99574.47
2022-10-11T09:06:04.238Z,99573.47
2022-10-11T09:08:42.957Z,99576.22
2022-10-11T09:11:50.324Z,99568.72
2022-10-11T09:14:39.953Z,99561.88
2022-10-11T09:17:54.420Z,99553.31
2022-10-11T09:20:24.186Z,99563.03
2022-10-11T09:23:13.131Z,99565.19
2022-10-11T09:26:12.060Z,99559.88
2022-10-11T09:28:41.622Z,99562.25
2022-10-11T09:31:10.921Z,99567.94
2022-10-11T09:33:46.900Z,99565.44
2022-10-11T09:36:37.353Z,99558.09
2022-10-11T09:39:25.478Z,99564.53
2022-10-11T09:42:11.570Z,99554.53
2022-10-11T09:44:57.474Z,99559.13
2022-10-11T09:47:27.227Z,99557.66
2022-10-11T09:49:58.157Z,99562.81
2022-10-11T09:52:26.070Z,99550.81
2022-10-11T09:55:00.779Z,99551.59
2022-10-11T09:57:32.125Z,99560.25
2022-10-11T10:00:22.148Z,99561.50
2022-10-11T10:03:10.358Z,99549.81
2022-10-11T10:05:38.535Z,99561.19
2022-10-11T10:08:22.630Z,99557.59
2022-10-11T10:10:59.957Z,99564.13
2022-10-11T10:13:41.747Z,99556.97
2022-10-11T10:16:20.214Z,99550.44
2022-10-11T10:19:24.088Z,99563.16
2022-10-11T10:21:53.564Z,99560.72
2022-10-11T10:24:42.517Z,99559.34
2022-10-11T10:27:17.774Z,99561.13
2022-10-11T10:30:10.149Z,99546.47
2022-10-11T10:32:52.218Z,99548.22
2022-10-11T10:35:37.015Z,99552.91
2022-10-11T10:38:32.667Z,99549.56
2022-10-11T10:41:04.202Z,99550.84
2022-10-11T10:43:36.743Z,99557.19
2022-10-11T10:46:18.011Z,99542.78
2022-10-11T10:49:19.124Z,99549.28
2022-10-11T10:52:24.699Z,99548.34
2022-10-11T10:55:03.319Z,99553.38
2022-10-11T10:57:54.292Z,99553.13
2022-10-11T11:00:22.839Z,99546.81
2022-10-11T11:03:20.342Z,99549.22
2022-10-11T11:05:55.958Z,99538.06
2022-10-11T11:08:22.438Z,99550.44
2022-10-11T11:11:01.902Z,99545.34
2022-10-11T11:13:43.685Z,99543.94
2022-10-11T11:16:19.323Z,99545.84
2022-10-11T11:19:24.151Z,99537.38
2022-10-11T11:22:12.142Z,99532.44
2022-10-11T11:25:12.411Z,99535.75
2022-10-11T11:28:22.237Z,99545.97
2022-10-11T11:31:21.007Z,99536.81
2022-10-11T11:34:09.395Z,99538.19
2022-10-11T11:36:46.156Z,99533.81
2022-10-11T11:39:35.306Z,99534.38
2022-10-11T11:42:10.279Z,99536.44
2022-10-11T11:44:48.139Z,99526.88
2022-10-11T11:47:19.062Z,99524.53
2022-10-11T11:49:50.042Z,99521.44
2022-10-11T11:52:34.627Z,99524.13
2022-10-11T11:55:25.975Z,99511.38
2022-10-11T11:58:07.320Z,99516.44
2022-10-11T12:00:48.273Z,99514.47
2022-10-11T12:03:23.934Z,99500.91
2022-10-11T12:06:12.258Z,99503.59
2022-10-11T12:08:45.878Z,99496.78
2022-10-11T12:11:28.578Z,99489.38
2022-10-11T12:13:59.683Z,99489.53
2022-10-11T12:16:27.191Z,99482.16
2022-10-11T12:18:56.713Z,99489.31
2022-10-11T12:21:37.771Z,99485.34
2022-10-11T12:24:21.752Z,99481.81
2022-10-11T12:26:55.762Z,99481.09
2022-10-11T12:29:45.018Z,99476.50
2022-10-11T12:32:33.981Z,99479.88
2022-10-11T12:35:31.779Z,99471.78
2022-10-11T12:38:17.836Z,99472.50
2022-10-11T12:40:47.210Z,99479.78
2022-10-11T12:43:19.940Z,99468.91
2022-10-11T12:45:48.108Z,99464.25
2022-10-11T12:48:35.920Z,99452.34
2022-10-11T12:51:15.666Z,99449.16
2022-10-11T12:54:26.824Z,99449.56
2022-10-11T12:57:14.164Z,99447.19
2022-10-11T12:59:45.057Z,99445.53
2022-10-11T13:02:31.912Z,99445.09
2022-10-11T13:05:18.666Z,99446.47
2022-10-11T13:07:46.521Z,99436.13
2022-10-11T13:10:21.495Z,99435.53
2022-10-11T13:12:49.045Z,99449.66
2022-10-11T13:15:19.395Z,99447.38
2022-10-11T13:17:48.673Z,99455.81
2022-10-11T13:20:26.055Z,99444.44
2022-10-11T13:22:55.559Z,99450.13
2022-10-11T13:25:29.911Z,99440.75
2022-10-11T13:27:59.510Z,99445.97
2022-10-11T13:30:31.527Z,99442.13
2022-10-11T13:32:59.510Z,99443.59
2022-10-11T13:35:34.479Z,99440.03
2022-10-11T13:38:02.439Z,99436.84
2022-10-11T13:40:30.028Z,99432.97
2022-10-11T13:42:57.430Z,99427.06
2022-10-11T13:45:26.644Z,99435.19
2022-10-11T13:47:55.039Z,99427.50
2022-10-11T13:50:33.649Z,99424.47
2022-10-11T13:53:24.287Z,99424.09
2022-10-11T13:55:54.424Z,99415.50
2022-10-11T13:58:28.614Z,99421.28
2022-10-11T14:00:58.491Z,99416.94
2022-10-11T14:03:37.475Z,99421.66
2022-10-11T14:06:04.875Z,99418.53
2022-10-11T14:08:38.088Z,99419.16
2022-10-11T14:11:07.031Z,99415.19
2022-10-11T14:13:38.670Z,99416.03
2022-10-11T14:16:05.595Z,99405.28
2022-10-11T14:18:47.067Z,99406.84
2022-10-11T14:21:19.775Z,99423.63
2022-10-11T14:23:55.933Z,99417.34
2022-10-11T14:26:24.229Z,99413.84
2022-10-11T14:28:56.614Z,99414.72
2022-10-11T14:31:23.835Z,99412.91
2022-10-11T14:33:50.492Z,99414.00
2022-10-11T14:36:17.068Z,99406.00
2022-10-11T14:38:43.618Z,99407.59
2022-10-11T14:41:10.246Z,99403.13
2022-10-11T14:43:36.847Z,99404.19
2022-10-11T14:46:03.619Z,99399.84
2022-10-11T14:48:53.583Z,99403.94
2022-10-11T14:51:22.163Z,99407.22
2022-10-11T14:53:49.467Z,99409.03
2022-10-11T14:56:21.345Z,99404.91
2022-10-11T14:58:48.521Z,99404.75
2022-10-11T15:01:17.007Z,99418.50
2022-10-11T15:03:43.815Z,99411.38
2022-10-11T15:06:22.977Z,99404.00
2022-10-11T15:08:49.529Z,99411.31
2022-10-11T15:11:20.935Z,99406.09
2022-10-11T15:13:48.200Z,99403.56
2022-10-11T15:16:17.467Z,99404.06
2022-10-11T15:18:44.172Z,99399.84
2022-10-11T15:21:14.677Z,99403.28
2022-10-11T15:23:41.213Z,99401.31
2022-10-11T15:26:13.349Z,99399.13
2022-10-11T15:28:40.015Z,99398.16
2022-10-11T15:31:06.610Z,99395.22
2022-10-11T15:33:33.182Z,99396.41
2022-10-11T15:35:59.904Z,99388.69
2022-10-11T15:38:26.892Z,99392.75
2022-10-11T15:40:54.079Z,99388.22
2022-10-11T15:43:24.767Z,99387.72
2022-10-11T15:45:52.393Z,99381.75
2022-10-11T15:48:21.855Z,99387.38
2022-10-11T15:50:50.052Z,99382.38
2022-10-11T15:53:19.165Z,99389.31
2022-10-11T15:55:50.899Z,99391.41
2022-10-11T15:58:49.966Z,99391.34
2022-10-11T16:01:19.761Z,99397.91
2022-10-11T16:03:47.931Z,99391.09
2022-10-11T16:06:15.171Z,99405.84
2022-10-11T16:08:41.785Z,99403.09
2022-10-11T16:11:09.327Z,99407.19
2022-10-11T16:13:36.142Z,99408.75
2022-10-11T16:16:05.749Z,99414.56
2022-10-11T16:18:35.717Z,99411.25
2022-10-11T16:21:06.983Z,99413.59
2022-10-11T16:23:33.927Z,99414.25
2022-10-11T16:26:04.208Z,99414.63
2022-10-11T16:28:31.862Z,99413.56
2022-10-11T16:30:58.504Z,99409.78
2022-10-11T16:33:25.372Z,99411.16
2022-10-11T16:35:51.997Z,99413.41
2022-10-11T16:38:18.594Z,99415.59
2022-10-11T16:40:45.137Z,99412.53
2022-10-11T16:43:11.768Z,99413.00
2022-10-11T16:45:38.417Z,99412.53
2022-10-11T16:48:05.574Z,99416.88
2022-10-11T16:50:36.810Z,99418.00
2022-10-11T16:53:05.843Z,99412.34
2022-10-11T16:55:32.472Z,99417.91
2022-10-11T16:57:59.039Z,99417.34
2022-10-11T17:00:25.683Z,99423.34
2022-10-11T17:02:52.339Z,99427.84
2022-10-11T17:05:19.320Z,99423.19
2022-10-11T17:07:45.907Z,99428.56
2022-10-11T17:10:12.498Z,99432.41
2022-10-11T17:12:39.054Z,99429.47
2022-10-11T17:15:06.790Z,99423.94
2022-10-11T17:17:33.453Z,99429.59
2022-10-11T17:20:02.254Z,99431.31
2022-10-11T17:22:29.033Z,99425.13
2022-10-11T17:24:55.598Z,99430.91
2022-10-11T17:27:22.304Z,99436.13
2022-10-11T17:29:49.272Z,99433.97
2022-10-11T17:32:16.005Z,99433.56
2022-10-11T17:34:42.518Z,99426.66
2022-10-11T17:37:10.059Z,99427.66
2022-10-11T17:39:36.842Z,99433.19
2022-10-11T17:42:07.317Z,99422.28
2022-10-11T17:44:35.359Z,99425.03
2022-10-11T17:47:02.820Z,99414.19
2022-10-11T17:49:29.569Z,99425.84
2022-10-11T17:51:56.670Z,99422.50
2022-10-11T17:54:23.251Z,99425.31
2022-10-11T17:56:50.308Z,99428.25
2022-10-11T17:59:20.983Z,99432.03
2022-10-11T18:01:50.246Z,99441.09
2022-10-11T18:04:19.196Z,99439.03
2022-10-11T18:06:46.880Z,99440.13
2022-10-11T18:09:16.627Z,99435.16
2022-10-11T18:11:43.303Z,99439.88
2022-10-11T18:14:10.157Z,99438.44
2022-10-11T18:16:37.778Z,99446.63
2022-10-11T18:19:06.937Z,99442.66
2022-10-11T18:21:35.006Z,99447.31
2022-10-11T18:24:04.164Z,99445.78
2022-10-11T18:26:31.251Z,99446.06
2022-10-11T18:28:58.730Z,99449.00
2022-10-11T18:31:28.582Z,99442.97
2022-10-11T18:33:55.528Z,99454.69
2022-10-11T18:36:27.199Z,99445.19
2022-10-11T18:38:56.690Z,99448.81
2022-10-11T18:41:25.108Z,99455.22
2022-10-11T18:43:54.312Z,99445.00
2022-10-11T18:46:22.220Z,99442.59
2022-10-11T18:48:51.537Z,99455.00
2022-10-11T18:51:21.522Z,99448.34
2022-10-11T18:53:48.930Z,99451.34
2022-10-11T18:56:17.796Z,99450.56
2022-10-11T18:58:45.221Z,99450.72
2022-10-11T19:01:24.049Z,99452.00
2022-10-11T19:03:53.938Z,99451.22
2022-10-11T19:06:24.888Z,99451.31
2022-10-11T19:08:54.861Z,99444.50
2022-10-11T19:11:22.819Z,99453.47
2022-10-11T19:14:07.087Z,99450.97
2022-10-11T19:16:35.822Z,99451.47
2022-10-11T19:19:02.344Z,99459.59
2022-10-11T19:21:28.926Z,99463.81
2022-10-11T19:23:56.283Z,99453.50
2022-10-11T19:26:30.027Z,99458.88
2022-10-11T19:28:59.243Z,99456.53
2022-10-11T19:31:25.969Z,99455.81
2022-10-11T19:33:52.742Z,99463.75
2022-10-11T19:36:19.835Z,99465.72
2022-10-11T19:38:49.060Z,99464.09
2022-10-11T19:41:18.658Z,99458.94
2022-10-11T19:43:45.565Z,99460.09
2022-10-11T19:46:27.372Z,99459.41
2022-10-11T19:49:03.888Z,99462.50
2022-10-11T19:51:34.741Z,99455.81
2022-10-11T19:54:04.371Z,99452.44
2022-10-11T19:56:32.784Z,99457.69
2022-10-11T19:59:00.029Z,99461.28
2022-10-11T20:01:29.697Z,99457.97
2022-10-11T20:03:59.484Z,99462.47
2022-10-11T20:06:27.868Z,99458.97
2022-10-11T20:09:16.619Z,99454.00
2022-10-11T20:11:42.430Z,99454.44
2022-10-11T20:14:09.420Z,99458.16
2022-10-11T20:16:36.004Z,99463.38
2022-10-11T20:19:02.740Z,99448.53
2022-10-11T20:21:30.474Z,99461.69
2022-10-11T20:24:02.292Z,99467.97
2022-10-11T20:26:30.022Z,99457.53
2022-10-11T20:28:57.427Z,99465.47
2022-10-11T20:31:29.829Z,99460.41
2022-10-11T20:33:58.535Z,99464.88
2022-10-11T20:36:27.974Z,99466.78
2022-10-11T20:38:54.535Z,99465.22
2022-10-11T20:41:31.358Z,99467.22
2022-10-11T20:43:59.514Z,99469.81
2022-10-11T20:46:28.307Z,99466.50
2022-10-11T20:49:01.860Z,99467.50
2022-10-11T20:51:31.023Z,99477.13
2022-10-11T20:53:59.309Z,99467.69
2022-10-11T20:56:26.682Z,99467.88
2022-10-11T20:58:55.430Z,99458.34
2022-10-11T21:01:26.168Z,99461.94
2022-10-11T21:03:52.909Z,99463.75
2022-10-11T21:06:19.454Z,99466.56
2022-10-11T21:08:46.035Z,99467.56
2022-10-11T21:11:12.566Z,99461.66
2022-10-11T21:13:39.100Z,99460.22
2022-10-11T21:16:10.551Z,99464.91
2022-10-11T21:18:37.430Z,99457.16
2022-10-11T21:21:07.859Z,99454.59
2022-10-11T21:23:34.629Z,99462.63
2022-10-11T21:26:06.705Z,99460.03
2022-10-11T21:28:33.934Z,99466.13
2022-10-11T21:31:09.287Z,99457.66
2022-10-11T21:33:36.583Z,99447.41
2022-10-11T21:36:05.469Z,99453.44
2022-10-11T21:38:32.399Z,99448.25
2022-10-11T21:40:58.944Z,99452.56
2022-10-11T21:43:25.479Z,99443.38
2022-10-11T21:45:52.110Z,99451.22
2022-10-11T21:48:18.631Z,99454.63
2022-10-11T21:50:52.755Z,99455.47
2022-10-11T21:53:19.253Z,99452.91
2022-10-11T21:55:45.742Z,99458.34
2022-10-11T21:58:12.385Z,99454.09
2022-10-11T22:00:39.195Z,99461.94
2022-10-11T22:03:05.706Z,99454.22
2022-10-11T22:05:32.302Z,99460.38
2022-10-11T22:07:58.858Z,99449.16
2022-10-11T22:10:25.423Z,99458.03
2022-10-11T22:12:51.941Z,99449.38
2022-10-11T22:15:18.443Z,99437.38
2022-10-11T22:17:44.952Z,99443.75
2022-10-11T22:20:11.540Z,99440.22
2022-10-11T22:22:38.328Z,99438.53
2022-10-11T22:25:05.543Z,99443.78
2022-10-11T22:27:32.176Z,99440.47
2022-10-11T22:29:58.716Z,99443.94
2022-10-11T22:32:25.258Z,99445.69
2022-10-11T22:34:52.017Z,99447.72
2022-10-11T22:37:18.558Z,99441.63
2022-10-11T22:39:45.061Z,99436.41
2022-10-11T22:42:11.646Z,99440.84
2022-10-11T22:44:38.143Z,99434.91
2022-10-11T22:47:04.713Z,99436.69
2022-10-11T22:49:31.402Z,99440.13
2022-10-11T22:51:57.865Z,99440.13
2022-10-11T22:54:24.439Z,99434.16
2022-10-11T22:56:51.046Z,99436.78
2022-10-11T22:59:17.594Z,99430.31
2022-10-11T23:01:44.091Z,99432.06
2022-10-11T23:04:10.667Z,99425.09
2022-10-11T23:06:37.273Z,99423.38
2022-10-11T23:09:03.898Z,99423.50
2022-10-11T23:11:30.710Z,99428.72
2022-10-11T23:13:57.266Z,99419.34
2022-10-11T23:16:23.754Z,99428.16
2022-10-11T23:18:53.259Z,99426.38
2022-10-11T23:21:20.100Z,99424.75
2022-10-11T23:23:46.679Z,99422.69
2022-10-11T23:26:15.629Z,99429.53
2022-10-11T23:28:43.103Z,99419.91
2022-10-11T23:31:12.822Z,99422.63
2022-10-11T23:33:39.612Z,99423.53
2022-10-11T23:36:06.821Z,99428.81
2022-10-11T23:38:33.333Z,99425.41
2022-10-11T23:40:59.937Z,99416.66
2022-10-11T23:43:26.432Z,99421.13
2022-10-11T23:45:54.891Z,99424.59
2022-10-11T23:48:21.622Z,99420.31
2022-10-11T23:50:48.228Z,99418.75
2022-10-11T23:53:14.760Z,99424.03
2022-10-11T23:55:42.398Z,99421.44
2022-10-11T23:58:08.956Z,99424.88
